createdAt,value
2022-09-05T00:02:41.706Z,101509.00
2022-09-05T00:05:29.492Z,101505.34
2022-09-05T00:08:07.535Z,101512.84
2022-09-05T00:11:40.001Z,101513.03
2022-09-05T00:13:43.644Z,101516.19
2022-09-05T00:16:30.246Z,101520.88
2022-09-05T00:24:22.750Z,101513.97
2022-09-05T00:24:37.911Z,101518.50
2022-09-05T00:25:31.730Z,101515.41
2022-09-05T00:28:26.081Z,101510.69
2022-09-05T00:31:53.610Z,101514.94
2022-09-05T00:34:35.973Z,101503.97
2022-09-05T00:37:32.169Z,101504.34
2022-09-05T00:40:20.678Z,101505.63
2022-09-05T00:42:53.613Z,101509.63
2022-09-05T00:45:29.502Z,101502.34
2022-09-05T00:48:07.308Z,101508.28
2022-09-05T00:50:46.298Z,101516.84
2022-09-05T00:53:21.421Z,101515.13
2022-09-05T00:56:04.304Z,101516.34
2022-09-05T00:58:52.312Z,101514.78
2022-09-05T01:01:31.264Z,101511.50
2022-09-05T01:04:17.892Z,101512.56
2022-09-05T01:07:05.026Z,101512.06
2022-09-05T01:09:50.025Z,101517.16
2022-09-05T01:12:50.118Z,101514.72
2022-09-05T01:15:33.874Z,101517.88
2022-09-05T01:18:28.076Z,101520.00
2022-09-05T01:21:48.154Z,101518.72
2022-09-05T01:24:46.815Z,101511.91
2022-09-05T01:28:54.991Z,101512.84
2022-09-05T01:30:47.430Z,101513.72
2022-09-05T01:33:26.520Z,101518.41
2022-09-05T01:36:18.481Z,101514.44
2022-09-05T01:39:51.586Z,101514.84
2022-09-05T01:41:58.588Z,101510.31
2022-09-05T01:44:42.968Z,101502.34
2022-09-05T01:47:30.963Z,101504.47
2022-09-05T01:50:10.463Z,101505.69
2022-09-05T01:52:57.742Z,101498.56
2022-09-05T01:56:05.154Z,101495.31
2022-09-05T01:58:50.778Z,101513.41
2022-09-05T02:01:32.600Z,101509.28
2022-09-05T02:04:21.868Z,101508.72
2022-09-05T02:07:15.195Z,101501.44
2022-09-05T02:10:13.351Z,101505.44
2022-09-05T02:13:01.908Z,101508.59
2022-09-05T02:15:42.926Z,101505.13
2022-09-05T02:18:25.102Z,101511.06
2022-09-05T02:20:58.364Z,101509.53
2022-09-05T02:23:40.939Z,101506.06
2022-09-05T02:26:17.797Z,101513.88
2022-09-05T02:28:55.349Z,101512.38
2022-09-05T02:31:31.502Z,101508.19
2022-09-05T02:34:09.386Z,101510.50
2022-09-05T02:36:44.552Z,101513.47
2022-09-05T02:45:04.248Z,101515.53
2022-09-05T02:45:13.249Z,101513.13
2022-09-05T02:45:26.686Z,101508.97
2022-09-05T02:48:15.190Z,101511.94
2022-09-05T02:57:27.276Z,101513.16
2022-09-05T02:57:39.946Z,101514.59
2022-09-05T02:57:46.251Z,101523.09
2022-09-05T03:00:02.688Z,101517.91
2022-09-05T03:02:38.546Z,101515.50
2022-09-05T03:05:14.446Z,101518.28
2022-09-05T03:08:09.057Z,101511.16
2022-09-05T03:11:08.577Z,101518.13
2022-09-05T03:14:28.129Z,101515.16
2022-09-05T03:17:29.700Z,101515.34
2022-09-05T03:20:41.816Z,101519.91
2022-09-05T03:24:00.768Z,101511.56
2022-09-05T03:26:57.652Z,101514.34
2022-09-05T03:30:12.189Z,101509.47
2022-09-05T03:33:08.102Z,101509.31
2022-09-05T03:36:09.912Z,101520.59
2022-09-05T03:39:23.612Z,101517.84
2022-09-05T03:42:31.772Z,101514.72
2022-09-05T03:45:36.357Z,101519.41
2022-09-05T03:48:32.598Z,101516.97
2022-09-05T03:56:58.247Z,101522.53
2022-09-05T03:57:11.219Z,101513.69
2022-09-05T03:58:08.829Z,101513.16
2022-09-05T04:01:10.821Z,101518.56
2022-09-05T04:08:14.024Z,101513.69
2022-09-05T04:08:26.112Z,101516.16
2022-09-05T04:09:51.190Z,101515.59
2022-09-05T04:12:27.333Z,101518.00
2022-09-05T04:15:01.404Z,101520.78
2022-09-05T04:17:37.297Z,101523.56
2022-09-05T04:20:13.419Z,101521.66
2022-09-05T04:23:05.494Z,101529.97
2022-09-05T04:25:49.552Z,101525.66
2022-09-05T04:28:53.442Z,101525.66
2022-09-05T04:31:36.477Z,101532.09
2022-09-05T04:34:18.089Z,101529.50
2022-09-05T04:37:01.771Z,101529.66
2022-09-05T04:39:35.043Z,101528.97
2022-09-05T04:42:17.623Z,101526.00
2022-09-05T04:44:47.850Z,101540.81
2022-09-05T04:47:21.815Z,101534.19
2022-09-05T04:49:58.892Z,101530.56
2022-09-05T04:52:53.861Z,101529.69
2022-09-05T04:55:26.987Z,101526.56
2022-09-05T04:57:59.857Z,101531.25
2022-09-05T05:05:58.506Z,101538.03
2022-09-05T05:06:14.486Z,101543.03
2022-09-05T05:06:42.286Z,101553.47
2022-09-05T05:09:21.825Z,101547.22
2022-09-05T05:18:01.502Z,101554.84
2022-09-05T05:18:07.633Z,101555.19
2022-09-05T05:18:10.720Z,101550.34
2022-09-05T05:20:42.766Z,101563.91
2022-09-05T05:23:16.228Z,101557.63
2022-09-05T05:25:52.085Z,101561.28
2022-09-05T05:28:29.988Z,101563.19
2022-09-05T05:31:10.414Z,101559.03
2022-09-05T05:33:41.284Z,101564.72
2022-09-05T05:36:19.332Z,101566.47
2022-09-05T05:38:53.669Z,101565.94
2022-09-05T05:41:26.766Z,101565.06
2022-09-05T05:43:55.201Z,101558.16
2022-09-05T05:46:33.998Z,101558.66
2022-09-05T05:49:16.571Z,101565.22
2022-09-05T05:52:02.621Z,101566.47
2022-09-05T05:54:43.594Z,101568.22
2022-09-05T05:57:41.539Z,101572.03
2022-09-05T06:00:27.692Z,101570.78
2022-09-05T06:03:33.117Z,101576.34
2022-09-05T06:06:22.932Z,101572.69
2022-09-05T06:13:14.626Z,101575.28
2022-09-05T06:15:02.949Z,101576.16
2022-09-05T06:16:41.564Z,101575.47
2022-09-05T06:20:45.934Z,101572.34
2022-09-05T06:23:39.133Z,101574.09
2022-09-05T06:26:42.518Z,101576.03
2022-09-05T06:29:37.980Z,101579.34
2022-09-05T06:32:22.115Z,101574.13
2022-09-05T06:35:20.228Z,101576.34
2022-09-05T06:38:03.415Z,101575.84
2022-09-05T06:40:37.715Z,101581.03
2022-09-05T06:43:18.986Z,101582.25
2022-09-05T06:46:52.823Z,101580.34
2022-09-05T06:49:30.161Z,101581.22
2022-09-05T06:52:32.197Z,101582.22
2022-09-05T06:55:38.916Z,101573.00
2022-09-05T06:58:42.278Z,101574.72
2022-09-05T07:01:13.722Z,101576.78
2022-09-05T07:05:21.776Z,101575.00
2022-09-05T07:07:06.824Z,101574.75
2022-09-05T07:09:52.357Z,101577.94
2022-09-05T07:12:29.984Z,101581.31
2022-09-05T07:15:15.042Z,101578.75
2022-09-05T07:18:10.179Z,101588.16
2022-09-05T07:21:17.781Z,101585.38
2022-09-05T07:24:09.966Z,101586.00
2022-09-05T07:26:54.007Z,101589.63
2022-09-05T07:29:29.927Z,101584.84
2022-09-05T07:32:02.299Z,101590.31
2022-09-05T07:34:32.585Z,101587.56
2022-09-05T07:37:15.057Z,101593.22
2022-09-05T07:39:50.280Z,101596.91
2022-09-05T07:42:26.817Z,101603.19
2022-09-05T07:44:59.106Z,101601.47
2022-09-05T07:47:30.435Z,101601.53
2022-09-05T07:51:00.701Z,101607.78
2022-09-05T07:56:50.494Z,101601.88
2022-09-05T07:57:03.722Z,101600.91
2022-09-05T07:58:40.143Z,101604.84
2022-09-05T08:01:10.661Z,101604.28
2022-09-05T08:03:40.870Z,101599.59
2022-09-05T08:06:14.955Z,101597.75
2022-09-05T08:09:59.522Z,101594.75
2022-09-05T08:12:02.837Z,101603.84
2022-09-05T08:14:45.951Z,101595.44
2022-09-05T08:17:19.396Z,101603.19
2022-09-05T08:19:58.862Z,101602.75
2022-09-05T08:22:52.101Z,101600.59
2022-09-05T08:25:36.317Z,101602.03
2022-09-05T08:28:22.669Z,101601.78
2022-09-05T08:30:59.933Z,101592.22
2022-09-05T08:33:34.409Z,101586.34
2022-09-05T08:36:10.278Z,101590.19
2022-09-05T08:38:41.246Z,101580.63
2022-09-05T08:41:16.650Z,101584.63
2022-09-05T08:46:36.519Z,101583.09
2022-09-05T08:46:52.856Z,101586.06
2022-09-05T08:49:50.455Z,101584.78
2022-09-05T08:52:31.781Z,101574.34
2022-09-05T08:55:13.791Z,101579.50
2022-09-05T08:58:00.002Z,101580.34
2022-09-05T09:00:36.146Z,101569.50
2022-09-05T09:03:18.651Z,101575.97
2022-09-05T09:06:22.066Z,101574.41
2022-09-05T09:09:15.832Z,101570.44
2022-09-05T09:11:52.681Z,101575.53
2022-09-05T09:14:47.380Z,101573.34
2022-09-05T09:17:26.316Z,101568.66
2022-09-05T09:20:12.956Z,101559.69
2022-09-05T09:22:51.353Z,101556.56
2022-09-05T09:25:27.880Z,101557.13
2022-09-05T09:28:49.876Z,101554.94
2022-09-05T09:31:30.158Z,101554.66
2022-09-05T09:34:19.671Z,101555.19
2022-09-05T09:37:08.511Z,101549.47
2022-09-05T09:39:52.001Z,101552.59
2022-09-05T09:42:34.618Z,101544.69
2022-09-05T09:45:27.809Z,101559.06
2022-09-05T09:48:26.950Z,101550.09
2022-09-05T09:51:26.946Z,101550.09
2022-09-05T09:54:09.958Z,101555.28
2022-09-05T09:57:22.559Z,101557.28
2022-09-05T10:00:12.146Z,101547.78
2022-09-05T10:06:43.731Z,101542.16
2022-09-05T10:10:46.045Z,101540.09
2022-09-05T10:10:46.045Z,101541.69
2022-09-05T10:12:30.018Z,101542.72
2022-09-05T10:15:27.769Z,101541.59
2022-09-05T10:18:25.349Z,101533.34
2022-09-05T10:21:16.489Z,101528.28
2022-09-05T10:24:06.250Z,101527.72
2022-09-05T10:27:13.041Z,101526.09
2022-09-05T10:29:46.853Z,101529.00
2022-09-05T10:35:06.039Z,101530.56
2022-09-05T10:35:27.513Z,101520.19
2022-09-05T10:38:10.715Z,101514.41
2022-09-05T10:41:21.600Z,101518.47
2022-09-05T10:43:36.305Z,101518.56
2022-09-05T10:46:39.706Z,101514.47
2022-09-05T10:49:09.508Z,101510.91
2022-09-05T10:51:51.824Z,101511.91
2022-09-05T10:54:38.509Z,101507.81
2022-09-05T10:57:20.687Z,101503.69
2022-09-05T11:02:24.032Z,101508.97
2022-09-05T11:02:58.560Z,101500.31
2022-09-05T11:05:28.757Z,101499.91
2022-09-05T11:08:08.930Z,101499.22
2022-09-05T11:10:40.854Z,101503.81
2022-09-05T11:13:17.990Z,101494.88
2022-09-05T11:16:04.954Z,101497.56
2022-09-05T11:18:57.442Z,101480.59
2022-09-05T11:21:42.519Z,101481.78
2022-09-05T11:24:27.632Z,101469.66
2022-09-05T11:27:25.068Z,101475.06
2022-09-05T11:29:51.646Z,101471.38
2022-09-05T11:39:39.537Z,101474.81
2022-09-05T11:39:53.972Z,101474.22
2022-09-05T11:40:04.229Z,101465.72
2022-09-05T11:41:54.930Z,101466.34
2022-09-05T11:44:33.410Z,101464.69
2022-09-05T11:47:43.498Z,101475.41
2022-09-05T11:50:43.508Z,101463.81
2022-09-05T11:53:44.146Z,101471.19
2022-09-05T11:56:48.060Z,101465.03
2022-09-05T11:59:44.997Z,101464.22
2022-09-05T12:02:34.674Z,101457.44
2022-09-05T12:05:50.129Z,101451.53
2022-09-05T12:08:36.792Z,101453.81
2022-09-05T12:11:18.196Z,101453.03
2022-09-05T12:13:51.236Z,101465.47
2022-09-05T12:16:38.246Z,101459.88
2022-09-05T12:19:22.732Z,101457.88
2022-09-05T12:22:16.508Z,101456.19
2022-09-05T12:27:36.777Z,101446.84
2022-09-05T12:29:28.142Z,101447.97
2022-09-05T12:32:19.541Z,101446.31
2022-09-05T12:36:07.147Z,101444.59
2022-09-05T12:40:16.646Z,101447.41
2022-09-05T12:40:59.551Z,101440.03
2022-09-05T12:42:56.161Z,101438.06
2022-09-05T12:45:50.330Z,101446.03
2022-09-05T12:48:39.348Z,101437.28
2022-09-05T12:51:14.413Z,101431.88
2022-09-05T12:54:09.386Z,101437.56
2022-09-05T13:02:55.635Z,101424.00
2022-09-05T13:03:04.283Z,101425.09
2022-09-05T13:03:07.760Z,101428.56
2022-09-05T13:05:52.158Z,101426.31
2022-09-05T13:08:27.819Z,101423.47
2022-09-05T13:14:49.232Z,101424.59
2022-09-05T13:15:01.689Z,101418.84
2022-09-05T13:16:48.372Z,101414.03
2022-09-05T13:19:31.176Z,101411.22
2022-09-05T13:22:02.028Z,101409.75
2022-09-05T13:24:38.622Z,101408.91
2022-09-05T13:27:13.849Z,101401.25
2022-09-05T13:31:56.334Z,101389.06
2022-09-05T13:37:58.358Z,101382.25
2022-09-05T13:38:11.029Z,101380.00
2022-09-05T13:38:48.566Z,101378.31
2022-09-05T13:41:28.632Z,101380.00
2022-09-05T13:44:25.524Z,101389.63
2022-09-05T13:46:58.622Z,101368.63
2022-09-05T13:49:33.360Z,101369.72
2022-09-05T13:52:28.207Z,101372.50
2022-09-05T13:55:10.125Z,101361.78
2022-09-05T13:57:44.641Z,101365.72
2022-09-05T14:00:51.629Z,101360.28
2022-09-05T14:03:50.619Z,101365.41
2022-09-05T14:06:47.108Z,101351.78
2022-09-05T14:09:36.597Z,101353.75
2022-09-05T14:12:11.820Z,101358.22
2022-09-05T14:17:56.847Z,101339.22
2022-09-05T14:20:49.480Z,101346.84
2022-09-05T14:23:19.931Z,101342.56
2022-09-05T14:25:55.024Z,101339.75
2022-09-05T14:28:28.230Z,101340.84
2022-09-05T14:33:01.072Z,101334.63
2022-09-05T14:37:42.860Z,101342.78
2022-09-05T14:37:51.223Z,101338.72
2022-09-05T14:40:29.848Z,101345.19
2022-09-05T14:43:30.881Z,101343.16
2022-09-05T14:46:17.685Z,101331.75
2022-09-05T14:49:10.865Z,101333.41
2022-09-05T14:51:47.232Z,101329.38
2022-09-05T15:00:17.298Z,101321.34
2022-09-05T15:02:50.349Z,101324.97
2022-09-05T15:03:05.980Z,101318.38
2022-09-05T15:05:41.584Z,101317.81
2022-09-05T15:08:22.738Z,101319.44
2022-09-05T15:12:21.502Z,101307.16
2022-09-05T15:13:58.356Z,101311.97
2022-09-05T15:16:27.070Z,101310.75
2022-09-05T15:18:58.493Z,101310.75
2022-09-05T15:21:33.691Z,101314.38
2022-09-05T15:24:13.575Z,101310.94
2022-09-05T15:26:52.856Z,101309.50
2022-09-05T15:29:25.487Z,101317.66
2022-09-05T15:32:08.922Z,101302.31
2022-09-05T15:34:40.986Z,101315.00
2022-09-05T15:37:29.819Z,101304.72
2022-09-05T15:40:23.373Z,101305.88
2022-09-05T15:42:56.252Z,101306.63
2022-09-05T15:45:28.271Z,101305.16
2022-09-05T15:48:08.883Z,101303.72
2022-09-05T15:50:45.059Z,101303.84
2022-09-05T15:53:22.276Z,101303.78
2022-09-05T15:55:56.392Z,101295.72
2022-09-05T15:58:52.369Z,101295.06
2022-09-05T16:01:30.418Z,101289.81
2022-09-05T16:10:30.137Z,101286.56
2022-09-05T16:10:42.368Z,101285.25
2022-09-05T16:10:47.147Z,101280.88
2022-09-05T16:12:47.352Z,101282.88
2022-09-05T16:19:38.954Z,101286.50
2022-09-05T16:23:18.432Z,101284.94
2022-09-05T16:23:24.619Z,101273.44
2022-09-05T16:24:04.923Z,101280.94
2022-09-05T16:26:37.392Z,101281.31
2022-09-05T16:29:11.612Z,101278.66
2022-09-05T16:31:45.260Z,101271.78
2022-09-05T16:34:23.400Z,101272.56
2022-09-05T16:37:08.167Z,101270.47
2022-09-05T16:39:43.803Z,101266.09
2022-09-05T16:42:18.700Z,101265.75
2022-09-05T16:44:53.859Z,101263.91
2022-09-05T16:47:29.215Z,101256.41
2022-09-05T16:50:05.129Z,101252.41
2022-09-05T16:52:54.201Z,101248.34
2022-09-05T16:55:33.233Z,101243.72
2022-09-05T16:58:14.245Z,101243.56
2022-09-05T17:00:53.421Z,101237.84
2022-09-05T17:03:28.282Z,101239.47
2022-09-05T17:06:07.885Z,101237.13
2022-09-05T17:08:37.651Z,101231.38
2022-09-05T17:11:13.829Z,101227.09
2022-09-05T17:14:07.176Z,101228.41
2022-09-05T17:16:40.756Z,101229.00
2022-09-05T17:19:22.246Z,101225.09
2022-09-05T17:25:16.865Z,101224.63
2022-09-05T17:29:20.173Z,101226.81
2022-09-05T17:29:36.338Z,101223.88
2022-09-05T17:33:49.780Z,101223.09
2022-09-05T17:36:21.464Z,101216.84
2022-09-05T17:38:55.540Z,101221.00
2022-09-05T17:41:43.425Z,101223.81
2022-09-05T17:44:19.439Z,101220.16
2022-09-05T17:46:53.513Z,101212.81
2022-09-05T17:49:42.846Z,101220.38
2022-09-05T17:52:29.025Z,101221.47
2022-09-05T17:54:57.829Z,101218.91
2022-09-05T17:57:39.485Z,101226.75
2022-09-05T18:00:22.643Z,101224.41
2022-09-05T18:02:56.544Z,101226.59
2022-09-05T18:05:48.840Z,101223.16
2022-09-05T18:08:37.458Z,101221.09
2022-09-05T18:11:14.105Z,101222.41
2022-09-05T18:13:57.385Z,101226.59
2022-09-05T18:16:31.380Z,101223.38
2022-09-05T18:19:33.468Z,101227.78
2022-09-05T18:22:08.405Z,101223.97
2022-09-05T18:24:42.387Z,101221.66
2022-09-05T18:27:43.936Z,101227.94
2022-09-05T18:30:12.724Z,101231.72
2022-09-05T18:32:45.248Z,101219.22
2022-09-05T18:35:37.365Z,101215.41
2022-09-05T18:38:16.938Z,101219.19
2022-09-05T18:40:47.788Z,101217.31
2022-09-05T18:43:24.135Z,101216.94
2022-09-05T18:45:53.808Z,101230.84
2022-09-05T18:48:28.294Z,101228.72
2022-09-05T18:51:15.392Z,101237.03
2022-09-05T18:53:47.668Z,101235.97
2022-09-05T18:56:22.814Z,101234.97
2022-09-05T18:59:09.889Z,101231.75
2022-09-05T19:01:41.361Z,101226.84
2022-09-05T19:04:40.500Z,101222.81
2022-09-05T19:07:07.845Z,101209.44
2022-09-05T19:09:39.534Z,101218.31
2022-09-05T19:12:20.576Z,101216.25
2022-09-05T19:14:59.193Z,101210.47
2022-09-05T19:17:33.245Z,101215.69
2022-09-05T19:20:32.486Z,101220.91
2022-09-05T19:23:10.825Z,101217.94
2022-09-05T19:25:42.750Z,101220.56
2022-09-05T19:36:11.835Z,101218.22
2022-09-05T19:36:50.444Z,101218.06
2022-09-05T19:36:54.778Z,101213.97
2022-09-05T19:37:09.607Z,101223.09
2022-09-05T19:43:01.215Z,101219.88
2022-09-05T19:47:35.190Z,101204.44
2022-09-05T19:47:39.127Z,101207.41
2022-09-05T19:48:17.087Z,101195.63
2022-09-05T19:50:47.202Z,101196.31
2022-09-05T19:53:16.137Z,101193.97
2022-09-05T19:55:44.576Z,101188.19
2022-09-05T19:58:18.972Z,101191.47
2022-09-05T20:01:05.026Z,101187.38
2022-09-05T20:03:38.785Z,101186.97
2022-09-05T20:06:28.733Z,101188.28
2022-09-05T20:09:08.690Z,101193.47
2022-09-05T20:11:45.875Z,101192.88
2022-09-05T20:14:23.830Z,101188.78
2022-09-05T20:16:54.173Z,101190.09
2022-09-05T20:19:25.532Z,101190.56
2022-09-05T20:21:58.383Z,101191.00
2022-09-05T20:24:28.141Z,101188.91
2022-09-05T20:26:57.551Z,101184.59
2022-09-05T20:29:34.518Z,101185.91
2022-09-05T20:32:16.883Z,101193.91
2022-09-05T20:40:40.160Z,101191.56
2022-09-05T20:43:17.034Z,101194.41
2022-09-05T20:43:18.459Z,101191.38
2022-09-05T20:43:35.889Z,101187.53
2022-09-05T20:46:49.733Z,101195.53
2022-09-05T20:54:13.550Z,101187.75
2022-09-05T20:54:23.438Z,101189.09
2022-09-05T20:54:42.401Z,101187.59
2022-09-05T20:57:15.443Z,101189.09
2022-09-05T20:59:43.995Z,101185.06
2022-09-05T21:02:22.475Z,101185.50
2022-09-05T21:04:56.864Z,101179.50
2022-09-05T21:07:40.051Z,101180.16
2022-09-05T21:10:24.933Z,101171.34
2022-09-05T21:12:54.207Z,101177.59
2022-09-05T21:15:36.080Z,101177.81
2022-09-05T21:18:16.406Z,101182.38
2022-09-05T21:20:53.613Z,101189.28
2022-09-05T21:23:22.567Z,101186.94
2022-09-05T21:25:52.419Z,101185.44
2022-09-05T21:28:24.815Z,101187.84
2022-09-05T21:31:10.618Z,101190.22
2022-09-05T21:33:46.357Z,101176.84
2022-09-05T21:36:15.957Z,101173.63
2022-09-05T21:38:44.550Z,101165.88
2022-09-05T21:41:15.752Z,101171.94
2022-09-05T21:47:37.458Z,101160.97
2022-09-05T21:47:38.425Z,101162.25
2022-09-05T21:49:26.143Z,101157.97
2022-09-05T21:51:55.063Z,101157.56
2022-09-05T21:59:17.743Z,101154.56
2022-09-05T21:59:27.320Z,101156.06
2022-09-05T22:00:11.024Z,101151.16
2022-09-05T22:02:46.982Z,101149.84
2022-09-05T22:05:16.687Z,101140.19
2022-09-05T22:07:44.989Z,101145.34
2022-09-05T22:10:13.427Z,101138.44
2022-09-05T22:12:41.516Z,101142.75
2022-09-05T22:15:28.909Z,101141.47
2022-09-05T22:18:16.578Z,101136.53
2022-09-05T22:20:57.192Z,101136.09
2022-09-05T22:23:38.035Z,101122.78
2022-09-05T22:26:06.718Z,101115.06
2022-09-05T22:28:38.722Z,101114.63
2022-09-05T22:31:07.667Z,101119.78
2022-09-05T22:33:36.551Z,101118.50
2022-09-05T22:36:06.478Z,101120.66
2022-09-05T22:38:35.302Z,101126.69
2022-09-05T22:41:05.906Z,101122.38
2022-09-05T22:43:34.562Z,101122.81
2022-09-05T22:46:03.794Z,101116.56
2022-09-05T22:48:32.176Z,101123.47
2022-09-05T22:51:00.244Z,101126.47
2022-09-05T22:53:30.012Z,101131.41
2022-09-05T22:55:58.938Z,101125.13
2022-09-05T22:58:27.377Z,101130.97
2022-09-05T23:00:55.939Z,101139.56
2022-09-05T23:03:24.031Z,101126.00
2022-09-05T23:05:52.212Z,101133.72
2022-09-05T23:08:42.526Z,101138.44
2022-09-05T23:11:13.717Z,101136.97
2022-09-05T23:13:42.621Z,101133.53
2022-09-05T23:16:10.751Z,101122.56
2022-09-05T23:18:39.027Z,101125.56
2022-09-05T23:21:08.081Z,101126.00
2022-09-05T23:23:37.119Z,101123.63
2022-09-05T23:26:05.906Z,101123.84
2022-09-05T23:28:38.388Z,101121.25
2022-09-05T23:31:10.779Z,101121.47
2022-09-05T23:33:39.028Z,101122.56
2022-09-05T23:36:08.686Z,101118.25
2022-09-05T23:38:36.780Z,101122.09
2022-09-05T23:41:06.401Z,101117.81
2022-09-05T23:43:36.043Z,101114.38
2022-09-05T23:46:04.282Z,101116.50
2022-09-05T23:48:32.440Z,101110.28
2022-09-05T23:51:05.436Z,101107.06
2022-09-05T23:53:33.883Z,101108.34
2022-09-05T23:56:02.082Z,101104.88
2022-09-05T23:58:30.401Z,101097.81
